Time;durP1;ratioP1;P1;durP2;ratioP2;P2;SDS_P1;SDS_P2;PMS_P1;PMS_P2;Temp;Humidity;BMP_temperature;BMP_pressure;BME280_temperature;BME280_humidity;BME280_pressure;Samples;Min_cycle;Max_cycle;Signal;HPM_P1;HPM_P2
2022/09/27 00:01:56;;;;;;;6.30;5.43;;;;;;;22.03;58.50;99110.47;20621708;28;21079;-74
2022/09/27 00:11:56;;;;;;;5.90;5.30;;;;;;;22.03;58.46;99099.09;20617137;28;20802;-75
2022/09/27 00:21:56;;;;;;;6.15;5.28;;;;;;;22.02;58.25;99092.16;20619092;28;20052;-74
2022/09/27 00:31:57;;;;;;;5.93;5.10;;;;;;;22.01;58.59;99080.00;20614804;28;20046;-74
2022/09/27 00:41:58;;;;;;;6.43;5.30;;;;;;;22.00;58.13;99068.59;20620882;28;20121;-74
2022/09/27 00:52:07;;;;;;;6.90;5.37;;;;;;;21.99;58.18;99059.03;20629211;28;20125;-74
2022/09/27 01:02:09;;;;;;;6.35;4.85;;;;;;;21.98;58.08;99046.84;20632771;28;20314;-74
2022/09/27 01:12:15;;;;;;;5.30;4.80;;;;;;;21.97;58.20;99045.22;20628264;28;20053;-73
2022/09/27 01:22:41;;;;;;;5.30;4.80;;;;;;;21.97;58.04;99044.38;20633156;28;20054;-74
2022/09/27 01:32:54;;;;;;;5.60;4.72;;;;;;;21.96;58.21;99027.75;20621629;28;20075;-74
2022/09/27 01:42:59;;;;;;;6.60;4.65;;;;;;;21.95;58.18;99022.59;20628682;28;20058;-74
2022/09/27 01:53:05;;;;;;;6.25;4.88;;;;;;;21.93;58.21;99001.69;20637693;28;20057;-74
2022/09/27 02:03:14;;;;;;;6.05;4.70;;;;;;;21.93;58.37;98983.25;20628175;28;20066;-74
2022/09/27 02:13:17;;;;;;;6.07;5.07;;;;;;;21.92;57.88;98976.31;20633132;28;20049;-74
2022/09/27 02:23:21;;;;;;;5.65;4.90;;;;;;;21.91;58.14;98985.22;20631278;28;20044;-75
2022/09/27 02:33:29;;;;;;;5.82;5.22;;;;;;;21.89;57.80;98989.81;20633777;28;20046;-74
2022/09/27 02:43:31;;;;;;;5.45;4.68;;;;;;;21.88;58.13;98975.81;20630132;28;20070;-74
2022/09/27 02:53:37;;;;;;;5.73;4.73;;;;;;;21.88;57.77;98972.34;20635103;28;20041;-74
2022/09/27 03:03:49;;;;;;;5.15;4.65;;;;;;;21.86;58.05;98961.97;20632097;28;20034;-74
2022/09/27 03:13:50;;;;;;;4.67;4.27;;;;;;;21.86;57.99;98953.22;20623482;28;20149;-75
2022/09/27 03:23:50;;;;;;;5.57;4.70;;;;;;;21.83;58.14;98946.47;20614764;28;20038;-74
2022/09/27 03:33:50;;;;;;;5.82;4.93;;;;;;;21.83;57.69;98945.66;20621471;28;20895;-74
2022/09/27 03:43:51;;;;;;;5.00;4.50;;;;;;;21.82;58.03;98955.34;20623184;28;20061;-75
2022/09/27 03:53:51;;;;;;;4.68;4.10;;;;;;;21.83;57.94;98935.13;20622954;28;20069;-74
2022/09/27 04:03:52;;;;;;;4.90;4.40;;;;;;;21.83;58.05;98929.84;20626702;28;20049;-75
2022/09/27 04:13:55;;;;;;;4.47;3.80;;;;;;;21.87;58.97;98929.38;20648192;28;20061;-74
2022/09/27 04:23:55;;;;;;;7.20;4.72;;;;;;;21.93;60.52;98933.16;20621152;28;20531;-75
2022/09/27 04:33:56;;;;;;;7.85;4.38;;;;;;;21.96;60.90;98919.69;20627095;28;20049;-76
2022/09/27 04:44:00;;;;;;;6.95;4.38;;;;;;;21.98;60.62;98915.06;20631364;28;20051;-77
2022/09/27 04:54:00;;;;;;;16.60;6.68;;;;;;;21.89;59.44;98910.75;20635651;28;20181;-76
2022/09/27 05:04:01;;;;;;;22.05;13.35;;;;;;;20.28;56.13;98919.63;20605581;28;20054;-74
2022/09/27 05:14:01;;;;;;;14.68;11.00;;;;;;;21.04;55.33;98896.44;20635833;28;21577;-74
2022/09/27 05:24:02;;;;;;;17.00;8.98;;;;;;;21.29;56.21;98909.78;20632779;28;20049;-72
2022/09/27 05:34:02;;;;;;;9.57;7.47;;;;;;;21.43;56.81;98890.78;20619911;28;20042;-76
2022/09/27 05:44:02;;;;;;;11.95;7.78;;;;;;;21.54;57.98;98875.69;20636369;28;20046;-73
2022/09/27 05:54:03;;;;;;;13.57;6.90;;;;;;;21.63;57.82;98866.03;20640298;28;20099;-74
2022/09/27 06:04:04;;;;;;;9.52;6.32;;;;;;;21.66;58.33;98874.44;20640523;28;20050;-73
2022/09/27 06:14:04;;;;;;;9.25;6.50;;;;;;;21.72;58.03;98888.78;20641247;28;20146;-75
2022/09/27 06:24:06;;;;;;;7.78;5.53;;;;;;;21.73;58.17;98882.56;20642474;28;20042;-78
2022/09/27 06:34:07;;;;;;;9.00;6.40;;;;;;;;;;20647723;28;20105;-72
2022/09/27 06:44:07;;;;;;;10.43;7.00;;;;;;;21.80;58.08;98878.28;20659433;28;20046;-77
2022/09/27 06:54:07;;;;;;;8.48;5.93;;;;;;;21.86;58.12;98868.91;20649313;28;20180;-75
2022/09/27 07:04:10;;;;;;;11.00;6.82;;;;;;;21.87;57.16;98862.66;20643227;28;20160;-74
2022/09/27 07:14:10;;;;;;;;;;;;;;;21.91;57.60;98893.81;20643941;28;20050;-74
2022/09/27 07:24:12;;;;;;;8.23;5.93;;;;;;;21.92;57.94;98889.34;20664052;28;19929;-75
2022/09/27 07:34:12;;;;;;;7.60;5.20;;;;;;;21.96;57.83;98882.78;20659626;28;20076;-75
2022/09/27 07:44:15;;;;;;;10.27;5.60;;;;;;;22.03;57.68;98880.31;20665530;28;20038;-75
2022/09/27 07:54:15;;;;;;;6.10;5.20;;;;;;;22.01;57.73;98864.66;20675421;28;20061;-75
2022/09/27 08:04:15;;;;;;;7.20;5.10;;;;;;;22.07;57.75;98871.94;20665512;28;20132;-75
2022/09/27 08:14:17;;;;;;;7.07;5.03;;;;;;;22.11;57.49;98856.63;20666533;28;20073;-77
2022/09/27 08:24:17;;;;;;;6.38;4.75;;;;;;;22.13;57.46;98849.38;20670794;28;20116;-73
2022/09/27 08:34:19;;;;;;;5.68;4.88;;;;;;;22.13;57.71;98859.09;20690549;28;20037;-73
2022/09/27 08:44:31;;;;;;;7.45;4.90;;;;;;;22.15;57.68;98857.94;20652604;28;20049;-73
2022/09/27 08:54:34;;;;;;;6.03;4.57;;;;;;;22.17;57.67;98848.06;20634387;28;20042;-74
2022/09/27 09:04:38;;;;;;;7.72;5.38;;;;;;;22.16;57.46;98853.50;20647139;28;20165;-75
2022/09/27 09:14:44;;;;;;;8.35;5.15;;;;;;;22.15;57.32;98851.84;20693837;28;20121;-75
2022/09/27 09:24:54;;;;;;;7.45;5.03;;;;;;;22.13;57.15;98824.81;20698270;28;20082;-74
2022/09/27 09:35:01;;;;;;;7.63;5.78;;;;;;;22.05;57.26;98802.72;20690172;28;20180;-71
2022/09/27 09:45:02;;;;;;;7.38;5.32;;;;;;;22.06;57.40;98785.13;20656164;28;20413;-77
2022/09/27 09:55:12;;;;;;;10.27;5.68;;;;;;;22.09;57.87;98803.22;20660233;28;20045;-75
2022/09/27 10:05:25;;;;;;;9.77;6.35;;;;;;;22.10;57.98;98783.78;20664175;28;20068;-75
2022/09/27 10:15:28;;;;;;;10.73;7.50;;;;;;;22.10;57.65;98783.78;20663261;28;20137;-74
2022/09/27 10:25:59;;;;;;;9.73;7.47;;;;;;;22.11;57.94;98771.44;20669550;28;20046;-75
2022/09/27 10:36:01;;;;;;;10.98;8.68;;;;;;;22.11;58.21;98760.91;20671800;28;20050;-75
2022/09/27 10:46:03;;;;;;;12.23;9.05;;;;;;;22.14;58.11;98757.94;20649203;28;20047;-75
2022/09/27 10:56:04;;;;;;;15.70;9.77;;;;;;;22.14;58.28;98748.22;20648089;28;20041;-74
2022/09/27 11:06:29;;;;;;;15.98;12.57;;;;;;;22.13;57.71;98743.94;20645076;28;20050;-75
2022/09/27 11:16:38;;;;;;;13.15;10.45;;;;;;;22.15;57.81;98734.03;20638515;28;20126;-74
2022/09/27 11:26:44;;;;;;;18.65;12.38;;;;;;;22.23;59.26;98718.22;20644813;28;20547;-76
2022/09/27 11:37:00;;;;;;;20.88;14.63;;;;;;;22.29;61.40;98708.81;20656160;28;21038;-77
2022/09/27 11:47:16;;;;;;;17.63;13.38;;;;;;;22.33;61.17;98690.84;20662112;28;20038;-77
2022/09/27 11:57:25;;;;;;;17.98;11.95;;;;;;;22.36;60.53;98677.31;20668444;28;20104;-77
2022/09/27 12:07:42;;;;;;;17.23;11.45;;;;;;;22.36;59.78;98677.31;20658976;28;20398;-76
2022/09/27 12:17:47;;;;;;;13.55;10.77;;;;;;;22.40;59.58;98657.59;20677554;28;20374;-77
2022/09/27 12:28:33;;;;;;;13.30;10.73;;;;;;;22.42;59.20;98657.41;20653393;28;20409;-75
2022/09/27 12:38:51;;;;;;;11.50;9.77;;;;;;;22.40;58.89;98636.50;20640487;28;20046;-76
2022/09/27 12:49:08;;;;;;;12.05;9.98;;;;;;;22.39;59.15;98611.09;20663677;28;20042;-75
2022/09/27 12:59:12;;;;;;;16.67;10.48;;;;;;;22.42;59.08;98602.03;20642002;28;20088;-75
2022/09/27 13:09:35;;;;;;;15.80;10.02;;;;;;;22.44;59.01;98607.97;20642468;28;20054;-75
2022/09/27 13:19:36;;;;;;;14.10;9.52;;;;;;;22.45;59.09;98607.78;20653583;28;20045;-75
2022/09/27 13:29:37;;;;;;;13.37;9.80;;;;;;;22.45;58.75;98599.03;20633285;28;20047;-74
2022/09/27 13:39:37;;;;;;;14.27;10.25;;;;;;;22.46;58.93;98587.50;20631423;28;20050;-77
2022/09/27 13:49:45;;;;;;;16.50;9.18;;;;;;;22.55;57.79;98581.22;20673396;28;20038;-72
2022/09/27 13:59:49;;;;;;;13.65;8.23;;;;;;;22.59;57.50;98550.03;20688917;28;20046;-72
2022/09/27 14:09:59;;;;;;;16.08;8.50;;;;;;;22.54;58.06;98569.00;20668845;28;20179;-73
2022/09/27 14:20:00;;;;;;;13.10;8.60;;;;;;;22.53;58.29;98597.22;20633178;28;20070;-74
2022/09/27 14:30:14;;;;;;;21.50;9.23;;;;;;;22.48;57.81;98612.69;20653760;28;20046;-74
2022/09/27 14:40:19;;;;;;;16.52;9.00;;;;;;;22.49;58.24;98634.63;20643676;28;20046;-74
2022/09/27 14:50:25;;;;;;;14.05;9.13;;;;;;;22.50;57.96;98650.28;20651096;28;20221;-73
2022/09/27 15:00:31;;;;;;;12.15;7.78;;;;;;;22.47;57.20;98663.00;20633320;28;20046;-73
2022/09/27 15:10:34;;;;;;;13.30;6.70;;;;;;;22.55;56.57;98655.88;20611160;28;20038;-74
2022/09/27 15:20:35;;;;;;;8.93;5.75;;;;;;;22.60;56.31;98670.38;20629116;28;20042;-74
2022/09/27 15:30:38;;;;;;;8.00;4.20;;;;;;;22.55;54.74;98660.34;20633535;28;20042;-74
2022/09/27 15:40:47;;;;;;;5.30;3.20;;;;;;;22.55;53.61;98674.34;20634938;28;20062;-74
2022/09/27 15:50:48;;;;;;;6.63;3.47;;;;;;;22.51;55.03;98699.41;20616585;28;20053;-74
2022/09/27 16:01:04;;;;;;;7.95;3.60;;;;;;;22.54;56.02;98708.81;20621625;28;20408;-74
2022/09/27 16:11:05;;;;;;;7.75;3.70;;;;;;;22.49;56.50;98724.31;20633822;28;20050;-74
2022/09/27 16:21:08;;;;;;;10.50;4.35;;;;;;;22.50;57.49;98713.59;20616515;28;20974;-74
2022/09/27 16:31:10;;;;;;;17.50;9.52;;;;;;;22.52;58.14;98722.16;20629811;28;20050;-74
2022/09/27 16:41:11;;;;;;;39.78;13.40;;;;;;;22.53;58.68;98725.63;20612707;28;20077;-74
2022/09/27 17:01:40;;;;;;;32.95;14.73;;;;;;;22.52;58.61;98756.47;20634022;28;21936;-74
2022/09/27 17:11:41;;;;;;;35.67;15.50;;;;;;;22.51;59.16;98754.81;20634524;28;20165;-72
2022/09/27 17:21:42;;;;;;;35.38;17.20;;;;;;;22.59;59.88;98763.69;20622759;28;20073;-72
2022/09/27 17:31:43;;;;;;;30.75;16.45;;;;;;;22.59;60.97;98776.88;20619445;28;20034;-72
2022/09/27 17:41:43;;;;;;;30.88;17.60;;;;;;;22.61;61.21;98793.38;20616815;28;20038;-72
2022/09/27 17:51:52;;;;;;;36.70;16.83;;;;;;;22.63;61.54;98783.47;20612595;28;20049;-73
2022/09/27 18:01:52;;;;;;;34.28;17.25;;;;;;;22.62;62.60;98801.13;20608639;28;21536;-73
2022/09/27 18:11:53;;;;;;;30.90;16.65;;;;;;;22.66;63.44;98799.78;20639970;28;20042;-74
2022/09/27 18:21:53;;;;;;;27.80;15.38;;;;;;;22.65;63.16;98813.16;20623683;28;20042;-74
2022/09/27 18:31:53;;;;;;;25.40;14.43;;;;;;;22.63;62.89;98836.22;20620418;28;20046;-75
2022/09/27 18:41:55;;;;;;;23.05;13.32;;;;;;;22.65;62.78;98836.91;20603136;28;20093;-73
2022/09/27 18:51:58;;;;;;;26.65;12.23;;;;;;;22.65;62.11;98835.06;20605363;28;20037;-74
2022/09/27 19:01:59;;;;;;;20.98;12.07;;;;;;;22.60;61.66;98855.84;20628180;28;20729;-78
2022/09/27 19:11:59;;;;;;;18.60;11.43;;;;;;;22.62;61.60;98871.50;20625012;28;20062;-76
2022/09/27 19:22:00;;;;;;;22.10;10.52;;;;;;;22.59;60.77;98875.31;20641930;28;20052;-76
2022/09/27 19:32:00;;;;;;;16.55;9.98;;;;;;;22.55;60.76;98882.72;20611170;28;20042;-76
2022/09/27 19:42:01;;;;;;;16.88;9.63;;;;;;;22.49;60.60;98872.84;20668176;28;20102;-74
2022/09/27 19:52:03;;;;;;;15.80;9.23;;;;;;;22.47;60.59;98874.00;20650806;28;20100;-74
2022/09/27 20:02:04;;;;;;;13.33;8.63;;;;;;;22.44;60.60;98879.59;20645098;28;20296;-74
2022/09/27 20:12:05;;;;;;;11.45;7.45;;;;;;;22.42;60.50;98894.75;20646210;28;20060;-75
2022/09/27 20:22:05;;;;;;;13.27;8.10;;;;;;;22.39;59.99;98898.56;20642885;28;20077;-73
2022/09/27 20:32:06;;;;;;;12.45;7.75;;;;;;;22.37;60.39;98906.59;20675941;28;20046;-76
2022/09/27 20:42:07;;;;;;;12.15;7.55;;;;;;;22.35;60.37;98891.91;20649669;28;20038;-73
2022/09/27 20:52:07;;;;;;;12.75;7.07;;;;;;;22.32;60.16;98898.34;20643364;28;21901;-73
2022/09/27 21:02:08;;;;;;;12.93;7.15;;;;;;;22.30;60.08;98892.41;20661086;28;20070;-74
2022/09/27 21:12:08;;;;;;;10.30;6.80;;;;;;;22.30;60.12;98902.13;20654886;28;20046;-73
2022/09/27 21:22:09;;;;;;;9.50;6.30;;;;;;;22.27;60.02;98910.38;20661722;28;20045;-73
2022/09/27 21:32:10;;;;;;;10.43;6.43;;;;;;;22.23;60.26;98894.88;20658520;28;20507;-73
2022/09/27 21:42:10;;;;;;;9.52;6.20;;;;;;;22.28;60.95;98893.56;20649884;28;20065;-73
2022/09/27 21:52:11;;;;;;;11.75;6.03;;;;;;;22.27;60.47;98910.38;20653870;28;20061;-74
2022/09/27 22:02:11;;;;;;;9.02;5.82;;;;;;;22.28;60.96;98914.66;20632381;28;20049;-74
2022/09/27 22:12:11;;;;;;;7.22;5.32;;;;;;;22.29;60.23;98921.56;20622392;28;20054;-73
2022/09/27 22:22:12;;;;;;;8.30;5.07;;;;;;;22.26;59.98;98928.00;20645969;28;20046;-73
2022/09/27 22:32:12;;;;;;;9.00;4.88;;;;;;;22.27;59.88;98923.56;20637949;28;20140;-73
2022/09/27 22:42:15;;;;;;;7.05;4.65;;;;;;;22.22;59.76;98924.84;20632050;28;20054;-73
2022/09/27 22:52:16;;;;;;;7.25;4.70;;;;;;;22.16;59.70;98925.50;20636012;28;20117;-73
2022/09/27 23:02:17;;;;;;;7.45;4.43;;;;;;;22.18;59.81;98942.00;20632801;28;20050;-74
2022/09/27 23:12:17;;;;;;;7.22;4.45;;;;;;;22.16;59.40;98948.41;20640963;28;20161;-73
2022/09/27 23:22:18;;;;;;;6.15;4.03;;;;;;;22.11;59.31;98946.25;20633756;28;20044;-73
2022/09/27 23:32:18;;;;;;;5.05;4.10;;;;;;;22.11;59.09;98943.59;20631562;28;20042;-73
2022/09/27 23:42:19;;;;;;;4.47;3.92;;;;;;;22.08;59.16;98959.72;20624922;28;20050;-73
2022/09/27 23:52:19;;;;;;;6.30;3.97;;;;;;;22.06;58.75;98952.00;20633385;28;20445;-73
